PWSweather.com
Personal Weather Stations
Station Observations
KILMORRI1
Goose Lake, Morris, IL 60450

Goose LakeMorris, IL 60450

Lat: 41.34, Lon: -88.3

Elevation: 523

Station Type:

www.gooselakeweather.com

High Low Average
Temperature 46.7°F8.2°C 29.4°F-1.4°C 36.1°F2.3°C
Dew Point 34.1°F1.2°C 23.7°F-4.6°C 28.9°F-1.7°C
Winds 19.6 mph 31.5 kmh Calm Calm 11.0 mph SE17.7 kmh SE
Wind Gusts 26.5 mph42.6 kmh 2.3 mph3.7 kmh 15.0 mph24.1 kmh
Humidity 88% 60% 76%
Pressure 30.59 in1035.9 mb 30.34 in1027.4 mb -
Precipitation 0.01 in0.3 mm - -
Hour Temp Dew Point Humidity Winds Wind Gusts Pressure Precip Precip Rate Daily Precip Total
12:00 AM 31.0°F-0.6°C 22.0°F-5.6°C 69% 3.5 mph SE5.6 kmh SE 3.5 mph5.6 kmh 30.58 in1035.6 mb - 0.00 in0.0 mm 0.00 in0.0 mm
12:10 AM 31.1°F-0.5°C 21.8°F-5.7°C 68% 1.2 mph ESE1.9 kmh ESE 3.5 mph5.6 kmh 30.58 in1035.6 mb - 0.00 in0.0 mm 0.00 in0.0 mm
12:20 AM 31.4°F-0.3°C 21.7°F-5.7°C 67% 1.2 mph S1.9 kmh S 3.5 mph5.6 kmh 30.58 in1035.6 mb - 0.00 in0.0 mm 0.00 in0.0 mm
12:30 AM 31.6°F-0.2°C 21.9°F-5.6°C 67% 1.2 mph SSE1.9 kmh SSE 1.2 mph1.9 kmh 30.58 in1035.6 mb - 0.00 in0.0 mm 0.00 in0.0 mm
12:40 AM 31.6°F-0.2°C 21.5°F-5.8°C 66% Calm Calm -- 30.58 in1035.6 mb - 0.00 in0.0 mm 0.00 in0.0 mm
12:50 AM 32.0°F0.0°C 21.9°F-5.6°C 66% Calm Calm -- 30.58 in1035.6 mb - 0.00 in0.0 mm 0.00 in0.0 mm
01:00 AM 32.0°F0.0°C 23.7°F-4.6°C 71% 3.5 mph SW5.6 kmh SW 5.8 mph9.3 kmh 30.59 in1035.9 mb - 0.00 in0.0 mm 0.00 in0.0 mm
01:10 AM 31.6°F-0.2°C 24.3°F-4.3°C 74% 2.3 mph SW3.7 kmh SW 6.9 mph11.1 kmh 30.59 in1035.9 mb - 0.00 in0.0 mm 0.00 in0.0 mm
01:20 AM 31.2°F-0.4°C 25.1°F-3.8°C 78% Calm Calm 2.3 mph3.7 kmh 30.59 in1035.9 mb - 0.00 in0.0 mm 0.00 in0.0 mm
01:30 AM 30.8°F-0.7°C 25.4°F-3.7°C 80% 1.2 mph SSW1.9 kmh SSW 2.3 mph3.7 kmh 30.59 in1035.9 mb - 0.00 in0.0 mm 0.00 in0.0 mm
01:40 AM 30.7°F-0.7°C 25.8°F-3.4°C 82% 1.2 mph SSW1.9 kmh SSW 3.5 mph5.6 kmh 30.59 in1035.9 mb - 0.00 in0.0 mm 0.00 in0.0 mm
01:50 AM 30.6°F-0.8°C 26.1°F-3.3°C 83% 3.5 mph E5.6 kmh E 4.6 mph7.4 kmh 30.58 in1035.6 mb - 0.00 in0.0 mm 0.00 in0.0 mm
02:00 AM 30.5°F-0.8°C 26.2°F-3.2°C 84% 1.2 mph E1.9 kmh E 4.6 mph7.4 kmh 30.57 in1035.2 mb - 0.00 in0.0 mm 0.00 in0.0 mm
02:10 AM 30.3°F-0.9°C 26.4°F-3.1°C 85% 3.5 mph E5.6 kmh E 8.1 mph13.0 kmh 30.57 in1035.2 mb - 0.00 in0.0 mm 0.00 in0.0 mm
02:20 AM 30.1°F-1.1°C 26.5°F-3.1°C 86% 6.9 mph E11.1 kmh E 9.2 mph14.8 kmh 30.57 in1035.2 mb - 0.00 in0.0 mm 0.00 in0.0 mm
02:30 AM 30.0°F-1.1°C 26.3°F-3.2°C 86% 6.9 mph E11.1 kmh E 8.1 mph13.0 kmh 30.57 in1035.2 mb - 0.00 in0.0 mm 0.00 in0.0 mm
02:40 AM 30.0°F-1.1°C 26.3°F-3.2°C 86% 6.9 mph E11.1 kmh E 9.2 mph14.8 kmh 30.56 in1034.9 mb - 0.00 in0.0 mm 0.00 in0.0 mm
02:50 AM 29.9°F-1.2°C 26.5°F-3.1°C 87% 5.8 mph E9.3 kmh E 10.4 mph16.7 kmh 30.55 in1034.5 mb - 0.00 in0.0 mm 0.00 in0.0 mm
03:00 AM 29.8°F-1.2°C 26.4°F-3.1°C 87% 6.9 mph E11.1 kmh E 8.1 mph13.0 kmh 30.55 in1034.5 mb - 0.00 in0.0 mm 0.00 in0.0 mm
03:10 AM 29.7°F-1.3°C 26.6°F-3.0°C 88% 6.9 mph E11.1 kmh E 8.1 mph13.0 kmh 30.55 in1034.5 mb - 0.00 in0.0 mm 0.00 in0.0 mm
03:20 AM 29.7°F-1.3°C 26.6°F-3.0°C 88% 5.8 mph E9.3 kmh E 9.2 mph14.8 kmh 30.54 in1034.2 mb - 0.00 in0.0 mm 0.00 in0.0 mm
03:30 AM 29.7°F-1.3°C 26.6°F-3.0°C 88% 9.2 mph E14.8 kmh E 11.5 mph18.5 kmh 30.54 in1034.2 mb - 0.00 in0.0 mm 0.00 in0.0 mm
03:40 AM 29.7°F-1.3°C 26.6°F-3.0°C 88% 5.8 mph E9.3 kmh E 9.2 mph14.8 kmh 30.54 in1034.2 mb - 0.00 in0.0 mm 0.00 in0.0 mm
03:50 AM 29.7°F-1.3°C 26.6°F-3.0°C 88% 9.2 mph ESE14.8 kmh ESE 10.4 mph16.7 kmh 30.53 in1033.9 mb - 0.00 in0.0 mm 0.00 in0.0 mm
04:00 AM 29.7°F-1.3°C 26.6°F-3.0°C 88% 9.2 mph ESE14.8 kmh ESE 13.8 mph22.2 kmh 30.53 in1033.9 mb - 0.00 in0.0 mm 0.00 in0.0 mm
04:10 AM 29.8°F-1.2°C 26.7°F-2.9°C 88% 9.2 mph ESE14.8 kmh ESE 13.8 mph22.2 kmh 30.53 in1033.9 mb - 0.00 in0.0 mm 0.00 in0.0 mm
04:20 AM 29.8°F-1.2°C 26.7°F-2.9°C 88% 8.1 mph SE13.0 kmh SE 13.8 mph22.2 kmh 30.53 in1033.9 mb - 0.00 in0.0 mm 0.00 in0.0 mm
04:30 AM 29.8°F-1.2°C 26.7°F-2.9°C 88% 8.1 mph SE13.0 kmh SE 9.2 mph14.8 kmh 30.53 in1033.9 mb - 0.00 in0.0 mm 0.00 in0.0 mm
04:40 AM 29.9°F-1.2°C 26.8°F-2.9°C 88% 8.1 mph SE13.0 kmh SE 10.4 mph16.7 kmh 30.53 in1033.9 mb - 0.00 in0.0 mm 0.00 in0.0 mm
04:50 AM 29.9°F-1.2°C 26.8°F-2.9°C 88% 11.5 mph ESE18.5 kmh ESE 12.7 mph20.4 kmh 30.52 in1033.5 mb - 0.00 in0.0 mm 0.00 in0.0 mm
05:00 AM 30.0°F-1.1°C 26.8°F-2.9°C 88% 9.2 mph ESE14.8 kmh ESE 11.5 mph18.5 kmh 30.52 in1033.5 mb - 0.00 in0.0 mm 0.00 in0.0 mm
05:10 AM 30.0°F-1.1°C 26.9°F-2.8°C 88% 10.4 mph ESE16.7 kmh ESE 12.7 mph20.4 kmh 30.52 in1033.5 mb - 0.00 in0.0 mm 0.00 in0.0 mm
05:20 AM 30.0°F-1.1°C 26.9°F-2.8°C 88% 12.7 mph ESE20.4 kmh ESE 13.8 mph22.2 kmh 30.52 in1033.5 mb - 0.00 in0.0 mm 0.00 in0.0 mm
05:30 AM 30.1°F-1.1°C 26.7°F-2.9°C 87% 10.4 mph ESE16.7 kmh ESE 12.7 mph20.4 kmh 30.52 in1033.5 mb - 0.00 in0.0 mm 0.00 in0.0 mm
05:40 AM 30.1°F-1.1°C 26.7°F-2.9°C 87% 9.2 mph ESE14.8 kmh ESE 11.5 mph18.5 kmh 30.52 in1033.5 mb - 0.00 in0.0 mm 0.00 in0.0 mm
05:50 AM 30.2°F-1.0°C 26.8°F-2.9°C 87% 9.2 mph ESE14.8 kmh ESE 12.7 mph20.4 kmh 30.52 in1033.5 mb - 0.00 in0.0 mm 0.00 in0.0 mm
06:00 AM 30.2°F-1.0°C 26.5°F-3.1°C 86% 11.5 mph ESE18.5 kmh ESE 13.8 mph22.2 kmh 30.51 in1033.2 mb - 0.00 in0.0 mm 0.00 in0.0 mm
06:10 AM 30.2°F-1.0°C 26.2°F-3.2°C 85% 12.7 mph ESE20.4 kmh ESE 18.4 mph29.6 kmh 30.51 in1033.2 mb - 0.00 in0.0 mm 0.00 in0.0 mm
06:20 AM 30.1°F-1.1°C 26.2°F-3.2°C 85% 8.1 mph SE13.0 kmh SE 13.8 mph22.2 kmh 30.51 in1033.2 mb - 0.00 in0.0 mm 0.00 in0.0 mm
06:30 AM 30.0°F-1.1°C 26.0°F-3.3°C 85% 11.5 mph SE18.5 kmh SE 15.0 mph24.1 kmh 30.51 in1033.2 mb - 0.00 in0.0 mm 0.00 in0.0 mm
06:40 AM 29.7°F-1.3°C 25.8°F-3.4°C 85% 9.2 mph SE14.8 kmh SE 11.5 mph18.5 kmh 30.51 in1033.2 mb - 0.00 in0.0 mm 0.00 in0.0 mm
06:50 AM 29.6°F-1.3°C 25.7°F-3.5°C 85% 9.2 mph SE14.8 kmh SE 11.5 mph18.5 kmh 30.51 in1033.2 mb - 0.00 in0.0 mm 0.00 in0.0 mm
07:00 AM 29.4°F-1.4°C 25.5°F-3.6°C 85% 6.9 mph SE11.1 kmh SE 9.2 mph14.8 kmh 30.52 in1033.5 mb - 0.00 in0.0 mm 0.00 in0.0 mm
07:10 AM 29.4°F-1.4°C 25.7°F-3.5°C 86% 6.9 mph SE11.1 kmh SE 10.4 mph16.7 kmh 30.52 in1033.5 mb - 0.00 in0.0 mm 0.00 in0.0 mm
07:20 AM 29.5°F-1.4°C 25.8°F-3.4°C 86% 6.9 mph SE11.1 kmh SE 10.4 mph16.7 kmh 30.52 in1033.5 mb - 0.00 in0.0 mm 0.00 in0.0 mm
07:30 AM 29.5°F-1.4°C 25.8°F-3.4°C 86% 4.6 mph SE7.4 kmh SE 9.2 mph14.8 kmh 30.52 in1033.5 mb - 0.00 in0.0 mm 0.00 in0.0 mm
07:40 AM 29.6°F-1.3°C 25.6°F-3.6°C 85% 8.1 mph SE13.0 kmh SE 12.7 mph20.4 kmh 30.52 in1033.5 mb - 0.00 in0.0 mm 0.00 in0.0 mm
07:50 AM 29.6°F-1.3°C 25.9°F-3.4°C 86% 8.1 mph SE13.0 kmh SE 10.4 mph16.7 kmh 30.52 in1033.5 mb - 0.00 in0.0 mm 0.00 in0.0 mm
08:00 AM 29.8°F-1.2°C 25.9°F-3.4°C 85% 10.4 mph SE16.7 kmh SE 11.5 mph18.5 kmh 30.53 in1033.9 mb - 0.00 in0.0 mm 0.00 in0.0 mm
08:10 AM 30.2°F-1.0°C 26.2°F-3.2°C 85% 6.9 mph SE11.1 kmh SE 11.5 mph18.5 kmh 30.53 in1033.9 mb - 0.00 in0.0 mm 0.00 in0.0 mm
08:20 AM 30.7°F-0.7°C 26.7°F-2.9°C 85% 6.9 mph SE11.1 kmh SE 10.4 mph16.7 kmh 30.53 in1033.9 mb - 0.00 in0.0 mm 0.00 in0.0 mm
08:30 AM 31.2°F-0.4°C 26.9°F-2.8°C 84% 9.2 mph SE14.8 kmh SE 11.5 mph18.5 kmh 30.53 in1033.9 mb - 0.00 in0.0 mm 0.00 in0.0 mm
08:40 AM 31.7°F-0.2°C 27.1°F-2.7°C 83% 8.1 mph SE13.0 kmh SE 12.7 mph20.4 kmh 30.53 in1033.9 mb - 0.00 in0.0 mm 0.00 in0.0 mm
08:50 AM 32.2°F0.1°C 27.3°F-2.6°C 82% 10.4 mph SE16.7 kmh SE 15.0 mph24.1 kmh 30.53 in1033.9 mb - 0.00 in0.0 mm 0.00 in0.0 mm
09:00 AM 32.7°F0.4°C 27.8°F-2.3°C 82% 12.7 mph SE20.4 kmh SE 17.3 mph27.8 kmh 30.53 in1033.9 mb - 0.00 in0.0 mm 0.00 in0.0 mm
09:10 AM 33.2°F0.7°C 28.3°F-2.1°C 82% 8.1 mph SE13.0 kmh SE 19.6 mph31.5 kmh 30.53 in1033.9 mb - 0.00 in0.0 mm 0.00 in0.0 mm
09:20 AM 33.5°F0.8°C 28.0°F-2.2°C 80% 10.4 mph SE16.7 kmh SE 15.0 mph24.1 kmh 30.53 in1033.9 mb - 0.00 in0.0 mm 0.00 in0.0 mm
09:30 AM 34.2°F1.2°C 28.4°F-2.0°C 79% 9.2 mph SE14.8 kmh SE 12.7 mph20.4 kmh 30.53 in1033.9 mb - 0.00 in0.0 mm 0.00 in0.0 mm
09:40 AM 34.6°F1.4°C 28.1°F-2.2°C 77% 11.5 mph SSE18.5 kmh SSE 16.1 mph25.9 kmh 30.52 in1033.5 mb - 0.00 in0.0 mm 0.00 in0.0 mm
09:50 AM 35.3°F1.8°C 28.5°F-1.9°C 76% 8.1 mph SE13.0 kmh SE 15.0 mph24.1 kmh 30.52 in1033.5 mb - 0.01 in0.3 mm 0.01 in0.3 mm
10:00 AM 36.0°F2.2°C 28.2°F-2.1°C 73% 11.5 mph SE18.5 kmh SE 12.7 mph20.4 kmh 30.52 in1033.5 mb - 0.00 in0.0 mm 0.01 in0.3 mm
10:10 AM 36.2°F2.3°C 27.7°F-2.4°C 71% 9.2 mph SE14.8 kmh SE 13.8 mph22.2 kmh 30.52 in1033.5 mb - 0.00 in0.0 mm 0.01 in0.3 mm
10:20 AM 37.0°F2.8°C 28.2°F-2.1°C 70% 11.5 mph SE18.5 kmh SE 15.0 mph24.1 kmh 30.52 in1033.5 mb - 0.00 in0.0 mm 0.01 in0.3 mm
10:30 AM 37.3°F2.9°C 27.4°F-2.6°C 67% 12.7 mph SE20.4 kmh SE 15.0 mph24.1 kmh 30.52 in1033.5 mb - 0.00 in0.0 mm 0.01 in0.3 mm
10:40 AM 37.9°F3.3°C 27.9°F-2.3°C 67% 9.2 mph SE14.8 kmh SE 15.0 mph24.1 kmh 30.51 in1033.2 mb - 0.00 in0.0 mm 0.01 in0.3 mm
10:50 AM 38.4°F3.6°C 27.7°F-2.4°C 65% 10.4 mph SSE16.7 kmh SSE 20.7 mph33.3 kmh 30.51 in1033.2 mb - 0.00 in0.0 mm 0.01 in0.3 mm
11:00 AM 39.0°F3.9°C 28.2°F-2.1°C 65% 10.4 mph SE16.7 kmh SE 13.8 mph22.2 kmh 30.51 in1033.2 mb - 0.00 in0.0 mm 0.01 in0.3 mm
11:10 AM 39.2°F4.0°C 27.7°F-2.4°C 63% 12.7 mph SE20.4 kmh SE 18.4 mph29.6 kmh 30.50 in1032.8 mb - 0.00 in0.0 mm 0.01 in0.3 mm
11:20 AM 39.5°F4.2°C 27.9°F-2.3°C 63% 9.2 mph SE14.8 kmh SE 13.8 mph22.2 kmh 30.50 in1032.8 mb - 0.00 in0.0 mm 0.01 in0.3 mm
11:30 AM 40.5°F4.7°C 29.3°F-1.5°C 64% 12.7 mph SSE20.4 kmh SSE 13.8 mph22.2 kmh 30.49 in1032.5 mb - 0.00 in0.0 mm 0.01 in0.3 mm
11:40 AM 40.5°F4.7°C 28.5°F-1.9°C 62% 12.7 mph SE20.4 kmh SE 20.7 mph33.3 kmh 30.49 in1032.5 mb - 0.00 in0.0 mm 0.01 in0.3 mm
11:50 AM 41.3°F5.2°C 30.1°F-1.1°C 64% 9.2 mph SE14.8 kmh SE 13.8 mph22.2 kmh 30.49 in1032.5 mb - 0.00 in0.0 mm 0.01 in0.3 mm
12:00 PM 41.3°F5.2°C 28.9°F-1.7°C 61% 12.7 mph SE20.4 kmh SE 11.5 mph18.5 kmh 30.49 in1032.5 mb - 0.00 in0.0 mm 0.01 in0.3 mm
12:10 PM 41.3°F5.2°C 29.3°F-1.5°C 62% 13.8 mph SE22.2 kmh SE 19.6 mph31.5 kmh 30.48 in1032.2 mb - 0.00 in0.0 mm 0.01 in0.3 mm
12:20 PM 41.8°F5.4°C 29.3°F-1.5°C 61% 10.4 mph SE16.7 kmh SE 16.1 mph25.9 kmh 30.48 in1032.2 mb - 0.00 in0.0 mm 0.01 in0.3 mm
12:30 PM 43.0°F6.1°C 30.1°F-1.1°C 60% 11.5 mph ESE18.5 kmh ESE 18.4 mph29.6 kmh 30.47 in1031.8 mb - 0.00 in0.0 mm 0.01 in0.3 mm
12:40 PM 42.8°F6.0°C 30.7°F-0.7°C 62% 9.2 mph SE14.8 kmh SE 11.5 mph18.5 kmh 30.47 in1031.8 mb - 0.00 in0.0 mm 0.01 in0.3 mm
12:50 PM 43.1°F6.2°C 30.1°F-1.1°C 60% 8.1 mph SE13.0 kmh SE 10.4 mph16.7 kmh 30.47 in1031.8 mb - 0.00 in0.0 mm 0.01 in0.3 mm
01:00 PM 43.1°F6.2°C 31.0°F-0.6°C 62% 13.8 mph SE22.2 kmh SE 18.4 mph29.6 kmh 30.46 in1031.5 mb - 0.00 in0.0 mm 0.01 in0.3 mm
01:10 PM 43.5°F6.4°C 30.9°F-0.6°C 61% 12.7 mph SE20.4 kmh SE 17.3 mph27.8 kmh 30.46 in1031.5 mb - 0.00 in0.0 mm 0.01 in0.3 mm
01:20 PM 43.8°F6.6°C 32.0°F0.0°C 63% 10.4 mph SE16.7 kmh SE 18.4 mph29.6 kmh 30.45 in1031.2 mb - 0.00 in0.0 mm 0.01 in0.3 mm
01:30 PM 44.1°F6.7°C 31.9°F-0.1°C 62% 16.1 mph ESE25.9 kmh ESE 24.2 mph38.9 kmh 30.44 in1030.8 mb - 0.00 in0.0 mm 0.01 in0.3 mm
01:40 PM 44.5°F6.9°C 32.3°F0.2°C 62% 11.5 mph SE18.5 kmh SE 19.6 mph31.5 kmh 30.44 in1030.8 mb - 0.00 in0.0 mm 0.01 in0.3 mm
01:50 PM 44.7°F7.1°C 32.5°F0.3°C 62% 15.0 mph SE24.1 kmh SE 19.6 mph31.5 kmh 30.43 in1030.5 mb - 0.00 in0.0 mm 0.01 in0.3 mm
02:00 PM 45.6°F7.6°C 32.5°F0.3°C 60% 13.8 mph ESE22.2 kmh ESE 16.1 mph25.9 kmh 30.43 in1030.5 mb - 0.00 in0.0 mm 0.01 in0.3 mm
02:10 PM 45.3°F7.4°C 32.7°F0.4°C 61% 15.0 mph ESE24.1 kmh ESE 18.4 mph29.6 kmh 30.43 in1030.5 mb - 0.00 in0.0 mm 0.01 in0.3 mm
02:20 PM 45.2°F7.3°C 33.0°F0.6°C 62% 15.0 mph ESE24.1 kmh ESE 18.4 mph29.6 kmh 30.42 in1030.1 mb - 0.00 in0.0 mm 0.01 in0.3 mm
02:30 PM 45.0°F7.2°C 32.8°F0.4°C 62% 12.7 mph ESE20.4 kmh ESE 23.0 mph37.0 kmh 30.42 in1030.1 mb - 0.00 in0.0 mm 0.01 in0.3 mm
02:40 PM 46.2°F7.9°C 33.9°F1.1°C 62% 8.1 mph SE13.0 kmh SE 11.5 mph18.5 kmh 30.41 in1029.8 mb - 0.00 in0.0 mm 0.01 in0.3 mm
02:50 PM 45.4°F7.4°C 33.5°F0.8°C 63% 9.2 mph ESE14.8 kmh ESE 18.4 mph29.6 kmh 30.41 in1029.8 mb - 0.00 in0.0 mm 0.01 in0.3 mm
03:00 PM 46.4°F8.0°C 33.7°F0.9°C 61% 13.8 mph E22.2 kmh E 18.4 mph29.6 kmh 30.41 in1029.8 mb - 0.00 in0.0 mm 0.01 in0.3 mm
03:10 PM 46.0°F7.8°C 34.1°F1.2°C 63% 16.1 mph SE25.9 kmh SE 19.6 mph31.5 kmh 30.40 in1029.5 mb - 0.00 in0.0 mm 0.01 in0.3 mm
03:20 PM 45.9°F7.7°C 33.6°F0.9°C 62% 11.5 mph SE18.5 kmh SE 16.1 mph25.9 kmh 30.40 in1029.5 mb - 0.00 in0.0 mm 0.01 in0.3 mm
03:30 PM 46.7°F8.2°C 33.6°F0.9°C 60% 12.7 mph SE20.4 kmh SE 13.8 mph22.2 kmh 30.40 in1029.5 mb - 0.00 in0.0 mm 0.01 in0.3 mm
03:40 PM 46.5°F8.1°C 33.8°F1.0°C 61% 18.4 mph ESE29.6 kmh ESE 19.6 mph31.5 kmh 30.40 in1029.5 mb - 0.00 in0.0 mm 0.01 in0.3 mm
03:50 PM 46.4°F8.0°C 34.1°F1.2°C 62% 8.1 mph ESE13.0 kmh ESE 12.7 mph20.4 kmh 30.40 in1029.5 mb - 0.00 in0.0 mm 0.01 in0.3 mm
04:00 PM 46.3°F7.9°C 33.9°F1.1°C 62% 15.0 mph ESE24.1 kmh ESE 19.6 mph31.5 kmh 30.40 in1029.5 mb - 0.00 in0.0 mm 0.01 in0.3 mm
04:10 PM 46.4°F8.0°C 34.1°F1.2°C 62% 19.6 mph ESE31.5 kmh ESE 23.0 mph37.0 kmh 30.40 in1029.5 mb - 0.00 in0.0 mm 0.01 in0.3 mm
04:20 PM 46.2°F7.9°C 33.9°F1.1°C 62% 10.4 mph ESE16.7 kmh ESE 15.0 mph24.1 kmh 30.40 in1029.5 mb - 0.00 in0.0 mm 0.01 in0.3 mm
04:30 PM 45.4°F7.4°C 32.8°F0.4°C 61% 16.1 mph ESE25.9 kmh ESE 18.4 mph29.6 kmh 30.40 in1029.5 mb - 0.00 in0.0 mm 0.01 in0.3 mm
04:40 PM 45.4°F7.4°C 33.5°F0.8°C 63% 15.0 mph ESE24.1 kmh ESE 18.4 mph29.6 kmh 30.40 in1029.5 mb - 0.00 in0.0 mm 0.01 in0.3 mm
04:50 PM 45.4°F7.4°C 33.6°F0.9°C 63% 15.0 mph SE24.1 kmh SE 17.3 mph27.8 kmh 30.39 in1029.1 mb - 0.00 in0.0 mm 0.01 in0.3 mm
05:00 PM 45.2°F7.3°C 33.7°F0.9°C 64% 12.7 mph ESE20.4 kmh ESE 16.1 mph25.9 kmh 30.39 in1029.1 mb - 0.00 in0.0 mm 0.01 in0.3 mm
05:10 PM 45.2°F7.3°C 33.7°F0.9°C 64% 9.2 mph ESE14.8 kmh ESE 17.3 mph27.8 kmh 30.39 in1029.1 mb - 0.00 in0.0 mm 0.01 in0.3 mm
05:20 PM 44.5°F6.9°C 33.1°F0.6°C 64% 13.8 mph ESE22.2 kmh ESE 19.6 mph31.5 kmh 30.39 in1029.1 mb - 0.00 in0.0 mm 0.01 in0.3 mm
05:30 PM 44.2°F6.8°C 33.2°F0.7°C 65% 13.8 mph SE22.2 kmh SE 17.3 mph27.8 kmh 30.39 in1029.1 mb - 0.00 in0.0 mm 0.01 in0.3 mm
05:40 PM 43.4°F6.3°C 32.8°F0.4°C 66% 15.0 mph ESE24.1 kmh ESE 21.9 mph35.2 kmh 30.39 in1029.1 mb - 0.00 in0.0 mm 0.01 in0.3 mm
05:50 PM 43.0°F6.1°C 32.4°F0.2°C 66% 12.7 mph ESE20.4 kmh ESE 16.1 mph25.9 kmh 30.39 in1029.1 mb - 0.00 in0.0 mm 0.01 in0.3 mm
06:00 PM 42.6°F5.9°C 32.0°F0.0°C 66% 16.1 mph ESE25.9 kmh ESE 21.9 mph35.2 kmh 30.38 in1028.8 mb - 0.00 in0.0 mm 0.01 in0.3 mm
06:10 PM 42.1°F5.6°C 32.0°F0.0°C 67% 13.8 mph ESE22.2 kmh ESE 18.4 mph29.6 kmh 30.39 in1029.1 mb - 0.00 in0.0 mm 0.01 in0.3 mm
06:20 PM 41.5°F5.3°C 32.1°F0.1°C 69% 11.5 mph ESE18.5 kmh ESE 17.3 mph27.8 kmh 30.39 in1029.1 mb - 0.00 in0.0 mm 0.01 in0.3 mm
06:30 PM 40.8°F4.9°C 31.8°F-0.1°C 70% 15.0 mph ESE24.1 kmh ESE 19.6 mph31.5 kmh 30.38 in1028.8 mb - 0.00 in0.0 mm 0.01 in0.3 mm
06:40 PM 40.2°F4.6°C 31.5°F-0.3°C 71% 13.8 mph E22.2 kmh E 18.4 mph29.6 kmh 30.39 in1029.1 mb - 0.00 in0.0 mm 0.01 in0.3 mm
06:50 PM 39.6°F4.2°C 31.3°F-0.4°C 72% 17.3 mph ESE27.8 kmh ESE 20.7 mph33.3 kmh 30.38 in1028.8 mb - 0.00 in0.0 mm 0.01 in0.3 mm
07:00 PM 39.0°F3.9°C 31.1°F-0.5°C 73% 13.8 mph ESE22.2 kmh ESE 17.3 mph27.8 kmh 30.38 in1028.8 mb - 0.00 in0.0 mm 0.01 in0.3 mm
07:10 PM 38.6°F3.7°C 31.0°F-0.6°C 74% 17.3 mph ESE27.8 kmh ESE 21.9 mph35.2 kmh 30.37 in1028.4 mb - 0.00 in0.0 mm 0.01 in0.3 mm
07:20 PM 38.2°F3.4°C 30.6°F-0.8°C 74% 18.4 mph ESE29.6 kmh ESE 21.9 mph35.2 kmh 30.37 in1028.4 mb - 0.00 in0.0 mm 0.01 in0.3 mm
07:30 PM 37.8°F3.2°C 30.3°F-0.9°C 74% 15.0 mph ESE24.1 kmh ESE 23.0 mph37.0 kmh 30.38 in1028.8 mb - 0.00 in0.0 mm 0.01 in0.3 mm
07:40 PM 37.5°F3.1°C 30.2°F-1.0°C 75% 15.0 mph ESE24.1 kmh ESE 20.7 mph33.3 kmh 30.38 in1028.8 mb - 0.00 in0.0 mm 0.01 in0.3 mm
07:50 PM 37.2°F2.9°C 30.0°F-1.1°C 75% 13.8 mph ESE22.2 kmh ESE 17.3 mph27.8 kmh 30.38 in1028.8 mb - 0.00 in0.0 mm 0.01 in0.3 mm
08:00 PM 36.8°F2.7°C 29.9°F-1.2°C 76% 15.0 mph ESE24.1 kmh ESE 18.4 mph29.6 kmh 30.38 in1028.8 mb - 0.00 in0.0 mm 0.01 in0.3 mm
08:10 PM 36.4°F2.4°C 29.9°F-1.2°C 77% 16.1 mph ESE25.9 kmh ESE 21.9 mph35.2 kmh 30.38 in1028.8 mb - 0.00 in0.0 mm 0.01 in0.3 mm
08:20 PM 35.9°F2.2°C 29.4°F-1.4°C 77% 16.1 mph ESE25.9 kmh ESE 20.7 mph33.3 kmh 30.38 in1028.8 mb - 0.00 in0.0 mm 0.01 in0.3 mm
08:30 PM 35.5°F1.9°C 29.3°F-1.5°C 78% 17.3 mph ESE27.8 kmh ESE 26.5 mph42.6 kmh 30.38 in1028.8 mb - 0.00 in0.0 mm 0.01 in0.3 mm
08:40 PM 35.1°F1.7°C 28.9°F-1.7°C 78% 16.1 mph ESE25.9 kmh ESE 23.0 mph37.0 kmh 30.39 in1029.1 mb - 0.00 in0.0 mm 0.01 in0.3 mm
08:50 PM 34.7°F1.5°C 28.9°F-1.7°C 79% 17.3 mph ESE27.8 kmh ESE 23.0 mph37.0 kmh 30.38 in1028.8 mb - 0.00 in0.0 mm 0.01 in0.3 mm
09:00 PM 34.4°F1.3°C 28.6°F-1.9°C 79% 18.4 mph ESE29.6 kmh ESE 20.7 mph33.3 kmh 30.38 in1028.8 mb - 0.00 in0.0 mm 0.01 in0.3 mm
09:10 PM 34.0°F1.1°C 28.5°F-1.9°C 80% 13.8 mph ESE22.2 kmh ESE 13.8 mph22.2 kmh 30.38 in1028.8 mb - 0.00 in0.0 mm 0.01 in0.3 mm
09:20 PM 33.6°F0.9°C 28.1°F-2.2°C 80% 12.7 mph ESE20.4 kmh ESE 25.3 mph40.7 kmh 30.38 in1028.8 mb - 0.00 in0.0 mm 0.01 in0.3 mm
09:30 PM 33.3°F0.7°C 28.1°F-2.2°C 81% 13.8 mph ESE22.2 kmh ESE 19.6 mph31.5 kmh 30.38 in1028.8 mb - 0.00 in0.0 mm 0.01 in0.3 mm
09:40 PM 33.1°F0.6°C 27.9°F-2.3°C 81% 16.1 mph ESE25.9 kmh ESE 21.9 mph35.2 kmh 30.38 in1028.8 mb - 0.00 in0.0 mm 0.01 in0.3 mm
09:50 PM 33.0°F0.6°C 27.8°F-2.3°C 81% 11.5 mph SE18.5 kmh SE 17.3 mph27.8 kmh 30.38 in1028.8 mb - 0.00 in0.0 mm 0.01 in0.3 mm
10:00 PM 32.8°F0.4°C 27.6°F-2.4°C 81% 12.7 mph ESE20.4 kmh ESE 12.7 mph20.4 kmh 30.37 in1028.4 mb - 0.00 in0.0 mm 0.01 in0.3 mm
10:10 PM 32.7°F0.4°C 27.8°F-2.3°C 82% 10.4 mph ESE16.7 kmh ESE 13.8 mph22.2 kmh 30.38 in1028.8 mb - 0.00 in0.0 mm 0.01 in0.3 mm
10:20 PM 32.6°F0.3°C 27.7°F-2.4°C 82% 10.4 mph SE16.7 kmh SE 15.0 mph24.1 kmh 30.38 in1028.8 mb - 0.00 in0.0 mm 0.01 in0.3 mm
10:30 PM 32.5°F0.3°C 27.6°F-2.4°C 82% 10.4 mph ESE16.7 kmh ESE 16.1 mph25.9 kmh 30.38 in1028.8 mb - 0.00 in0.0 mm 0.01 in0.3 mm
10:40 PM 32.3°F0.2°C 27.4°F-2.6°C 82% 10.4 mph ESE16.7 kmh ESE 12.7 mph20.4 kmh 30.38 in1028.8 mb - 0.00 in0.0 mm 0.01 in0.3 mm
10:50 PM 32.2°F0.1°C 27.4°F-2.6°C 82% 9.2 mph ESE14.8 kmh ESE 13.8 mph22.2 kmh 30.37 in1028.4 mb - 0.00 in0.0 mm 0.01 in0.3 mm
11:00 PM 32.0°F0.0°C 27.4°F-2.6°C 83% 9.2 mph SE14.8 kmh SE 11.5 mph18.5 kmh 30.37 in1028.4 mb - 0.00 in0.0 mm 0.01 in0.3 mm
11:10 PM 32.0°F0.0°C 27.4°F-2.6°C 83% 10.4 mph ESE16.7 kmh ESE 12.7 mph20.4 kmh 30.37 in1028.4 mb - 0.00 in0.0 mm 0.01 in0.3 mm
11:20 PM 31.8°F-0.1°C 27.3°F-2.6°C 83% 8.1 mph ESE13.0 kmh ESE 10.4 mph16.7 kmh 30.37 in1028.4 mb - 0.00 in0.0 mm 0.01 in0.3 mm
11:30 PM 31.7°F-0.2°C 27.1°F-2.7°C 83% 8.1 mph SE13.0 kmh SE 12.7 mph20.4 kmh 30.37 in1028.4 mb - 0.00 in0.0 mm 0.01 in0.3 mm
11:40 PM 31.7°F-0.2°C 27.5°F-2.5°C 84% 6.9 mph ESE11.1 kmh ESE 9.2 mph14.8 kmh 30.36 in1028.1 mb - 0.00 in0.0 mm 0.01 in0.3 mm
11:50 PM 31.8°F-0.1°C 27.2°F-2.7°C 83% 8.1 mph SE13.0 kmh SE 9.2 mph14.8 kmh 30.36 in1028.1 mb - 0.00 in0.0 mm 0.01 in0.3 mm